DNMM/LOS METAR and TAF weather

Enter ICAO airport designator
Station Type Date Time Source
DNMM METAR 2018/12/12 23:00 UTC NOAA

DNMM 122300Z VRB02KT 7000 FEW011 27/26 Q1015 N0SIG


Station Type Date Time Source
DNMM Decoded METAR 2018/12/12 23:00 UTC NOAA

Lagos / Ikeja, Nigeria (DNMM) 06-35N 003-20E 38M
Dec 12, 2018 - 06:00 PM EST / 2018.12.12 2300 UTC
Wind: Variable at 2 MPH (2 KT):0
Visibility: 4 mile(s):0
Sky conditions: mostly clear
Temperature: 80 F (27 C)
Dew Point: 78 F (26 C)
Relative Humidity: 94%
Pressure (altimeter): 29.97 in. Hg (1015 hPa)
ob: DNMM 122300Z VRB02KT 7000 FEW011 27/26 Q1015 N0SIG
cycle: 23

Station Type Date Time Source
DNMM TAF 2018/12/12 18:24 UTC NOAA

TAF DNMM 121550Z 1218/1324 VRB02KT 6000 TS SCT011 FEW019CB
TEMPO 1305/1309 2000 HZ PROB30 1306/1308 1500 BR
BECMG 1310/1312 15010KT BKN014


Example: see airport list